Time;durP1;ratioP1;P1;durP2;ratioP2;P2;SDS_P1;SDS_P2;PMS_P1;PMS_P2;Temp;Humidity;BMP_temperature;BMP_pressure;BME280_temperature;BME280_humidity;BME280_pressure;Samples;Min_cycle;Max_cycle;Signal;HPM_P1;HPM_P2
2022/03/31 00:00:10;;;;;;;478.40;280.95;;;;;;;6.97;42.17;99996.16;689670;28;46948;-67
2022/03/31 00:00:35;;;;;;;475.85;269.13;;;;;;;6.94;42.24;99992.97;686552;28;138818;-67
2022/03/31 00:00:58;;;;;;;477.75;275.40;;;;;;;6.97;42.00;100000.69;690358;28;45213;-66
2022/03/31 00:01:19;;;;;;;473.25;255.18;;;;;;;6.96;41.94;99999.84;690476;28;46379;-66
2022/03/31 00:01:40;;;;;;;473.08;254.75;;;;;;;6.96;41.90;99997.16;690147;28;21537;-66
2022/03/31 00:02:02;;;;;;;473.65;257.15;;;;;;;6.99;42.09;99998.66;690916;28;22541;-66
2022/03/31 00:02:25;;;;;;;476.30;271.38;;;;;;;6.98;41.83;99997.84;689816;28;46295;-66
2022/03/31 00:02:47;;;;;;;476.17;274.15;;;;;;;7.01;41.94;99999.34;688941;28;69150;-67
2022/03/31 00:03:10;;;;;;;475.55;262.02;;;;;;;7.00;41.85;99995.81;689968;28;44510;-66
2022/03/31 00:03:31;;;;;;;474.83;260.77;;;;;;;6.99;41.94;99999.50;689312;28;69689;-66
2022/03/31 00:03:53;;;;;;;473.98;258.67;;;;;;;6.99;42.13;99994.16;690574;28;24314;-66
2022/03/31 00:04:14;;;;;;;477.50;270.42;;;;;;;6.99;41.92;99998.66;690106;28;45377;-66
2022/03/31 00:04:36;;;;;;;475.92;266.08;;;;;;;6.97;42.03;99992.63;690827;28;21332;-67
2022/03/31 00:04:57;;;;;;;473.35;254.00;;;;;;;6.97;42.00;99998.00;690145;28;45271;-66
2022/03/31 00:05:18;;;;;;;472.38;251.25;;;;;;;6.96;42.04;99994.50;690425;28;21607;-66
2022/03/31 00:05:41;;;;;;;476.60;271.52;;;;;;;6.94;42.01;99991.13;690041;28;45181;-66
2022/03/31 00:06:02;;;;;;;476.15;264.67;;;;;;;6.96;42.04;99994.50;690034;28;45251;-66
2022/03/31 00:06:23;;;;;;;475.05;263.40;;;;;;;6.97;41.98;100003.38;691080;28;22454;-66
2022/03/31 00:06:45;;;;;;;479.88;286.05;;;;;;;6.97;41.90;99993.47;690342;28;22419;-67
2022/03/31 00:07:06;;;;;;;479.95;289.20;;;;;;;6.98;41.96;99991.63;690331;28;47148;-66
2022/03/31 00:07:27;;;;;;;476.85;274.35;;;;;;;6.98;41.95;99994.31;690954;28;23399;-66
2022/03/31 00:07:49;;;;;;;482.67;303.60;;;;;;;6.96;41.94;99994.50;691136;28;21619;-67
2022/03/31 00:08:13;;;;;;;475.80;266.45;;;;;;;6.97;41.79;99995.31;689505;28;69443;-66
2022/03/31 00:08:34;;;;;;;476.88;269.17;;;;;;;6.94;41.89;99993.81;688360;28;90416;-66
2022/03/31 00:08:55;;;;;;;476.80;270.75;;;;;;;6.93;41.84;99993.97;690159;28;47167;-66
2022/03/31 00:09:16;;;;;;;475.70;269.73;;;;;;;6.94;42.00;99992.97;690828;28;23534;-67
2022/03/31 00:09:37;;;;;;;476.38;269.02;;;;;;;6.94;42.04;99998.34;690532;28;22408;-66
2022/03/31 00:10:01;;;;;;;475.02;262.63;;;;;;;6.94;41.92;99993.81;690812;28;23484;-67
2022/03/31 00:10:28;;;;;;;476.15;268.52;;;;;;;6.94;42.00;100001.84;689588;28;61546;-66
2022/03/31 00:10:52;;;;;;;476.55;268.88;;;;;;;6.96;41.98;99999.00;689271;28;67470;-67
2022/03/31 00:11:14;;;;;;;476.52;270.42;;;;;;;6.96;41.80;99996.31;688917;28;69866;-66
2022/03/31 00:11:35;;;;;;;477.33;270.75;;;;;;;6.98;41.73;100000.50;689228;28;45249;-67
2022/03/31 00:11:58;;;;;;;476.67;267.77;;;;;;;6.99;41.79;100001.34;690502;28;21540;-67
2022/03/31 00:12:19;;;;;;;477.63;273.77;;;;;;;6.94;41.85;99995.66;688085;28;90301;-67
2022/03/31 00:12:40;;;;;;;478.20;275.15;;;;;;;6.92;42.17;99997.69;690676;28;22361;-67
2022/03/31 00:13:04;;;;;;;479.50;284.00;;;;;;;6.90;42.15;99991.66;690732;28;21076;-67
2022/03/31 00:13:29;;;;;;;475.48;259.20;;;;;;;6.88;42.29;99999.88;688795;28;61794;-67
2022/03/31 00:13:50;;;;;;;473.52;254.63;;;;;;;6.89;42.11;100000.72;688987;28;69291;-66
2022/03/31 00:14:11;;;;;;;473.58;255.70;;;;;;;6.90;42.06;99997.03;691016;28;21489;-66
2022/03/31 00:14:34;;;;;;;473.50;258.42;;;;;;;6.88;42.04;99989.16;690818;28;22390;-67
2022/03/31 00:14:55;;;;;;;477.48;277.58;;;;;;;6.87;42.02;100000.88;689944;28;45216;-66
2022/03/31 00:15:16;;;;;;;473.08;261.10;;;;;;;6.90;41.93;99991.66;690515;28;22404;-66
2022/03/31 00:15:39;;;;;;;476.67;268.80;;;;;;;6.91;42.08;100002.22;689815;28;44027;-67
2022/03/31 00:16:00;;;;;;;475.35;266.63;;;;;;;6.91;41.96;100002.22;688732;28;69438;-66
2022/03/31 00:16:21;;;;;;;473.83;261.35;;;;;;;6.89;41.75;99995.34;690484;28;24551;-66
2022/03/31 00:16:43;;;;;;;477.70;278.70;;;;;;;6.88;41.89;99994.50;689849;28;22441;-66
2022/03/31 00:17:04;;;;;;;478.08;277.90;;;;;;;6.87;42.10;100000.88;689726;28;46310;-66
2022/03/31 00:17:25;;;;;;;477.42;277.33;;;;;;;6.88;42.07;99997.19;690925;28;22294;-67
2022/03/31 00:17:47;;;;;;;473.75;261.15;;;;;;;6.88;42.13;99996.34;690870;28;23740;-66
2022/03/31 00:18:10;;;;;;;476.40;270.15;;;;;;;6.88;41.84;99994.50;690989;28;23270;-67
2022/03/31 00:18:31;;;;;;;471.30;246.23;;;;;;;6.88;41.88;99994.50;689282;28;69457;-67
2022/03/31 00:18:52;;;;;;;474.33;261.67;;;;;;;6.87;42.02;99997.38;689867;28;46280;-66
2022/03/31 00:19:13;;;;;;;474.75;263.40;;;;;;;6.88;41.91;100001.72;691039;28;23819;-66
2022/03/31 00:19:35;;;;;;;479.60;273.58;;;;;;;6.86;41.86;99999.19;690062;28;22159;-67
2022/03/31 00:19:56;;;;;;;479.92;274.08;;;;;;;6.88;41.72;100001.72;689976;28;46326;-66
2022/03/31 00:20:17;;;;;;;476.52;271.75;;;;;;;6.85;41.80;99995.69;691007;28;22407;-67
2022/03/31 00:20:38;;;;;;;476.98;275.95;;;;;;;6.85;41.75;99994.84;690755;28;23406;-66
2022/03/31 00:21:00;;;;;;;476.75;268.42;;;;;;;6.85;41.89;99994.84;691087;28;23426;-66
2022/03/31 00:21:23;;;;;;;476.23;269.55;;;;;;;6.84;41.88;99996.69;689531;28;45253;-66
2022/03/31 00:21:44;;;;;;;479.55;279.67;;;;;;;6.81;41.80;99997.03;688817;28;45361;-67
2022/03/31 00:22:05;;;;;;;482.45;291.20;;;;;;;6.81;41.96;99996.19;690713;28;23295;-67
2022/03/31 00:22:26;;;;;;;479.50;281.83;;;;;;;6.83;41.82;99996.84;690612;28;22402;-66
2022/03/31 00:22:48;;;;;;;477.37;275.63;;;;;;;6.83;41.89;100004.91;690957;28;22304;-67
2022/03/31 00:23:09;;;;;;;480.50;286.02;;;;;;;6.83;41.78;100005.75;688865;28;69440;-66
2022/03/31 00:23:36;;;;;;;480.55;291.58;;;;;;;6.82;41.88;100004.06;690737;28;14964;-66
2022/03/31 00:23:58;;;;;;;475.23;269.15;;;;;;;6.84;41.73;99996.69;688177;28;92286;-66
2022/03/31 00:24:19;;;;;;;474.40;264.30;;;;;;;6.82;41.75;99996.03;689885;28;43719;-66
2022/03/31 00:24:40;;;;;;;477.10;273.90;;;;;;;6.82;41.71;99997.88;690755;28;23480;-67
2022/03/31 00:25:04;;;;;;;478.15;279.80;;;;;;;6.79;41.96;100004.41;691089;28;22410;-66
2022/03/31 00:25:26;;;;;;;482.45;299.90;;;;;;;6.78;41.81;100008.09;688907;28;70280;-66
2022/03/31 00:25:48;;;;;;;479.23;280.65;;;;;;;6.78;41.87;100002.72;689047;28;69472;-67
2022/03/31 00:26:13;;;;;;;476.90;271.67;;;;;;;6.78;41.83;100002.72;689301;28;48774;-66
2022/03/31 00:26:34;;;;;;;477.65;275.60;;;;;;;6.77;41.74;100001.06;686710;28;112569;-67
2022/03/31 00:26:56;;;;;;;476.98;273.08;;;;;;;6.77;41.83;100006.44;690649;28;24321;-66
2022/03/31 00:27:18;;;;;;;478.45;281.05;;;;;;;6.77;41.84;100008.28;687866;28;23474;-66
2022/03/31 00:27:39;;;;;;;488.00;328.08;;;;;;;6.76;41.77;100007.44;687115;28;46277;-67
2022/03/31 00:28:03;;;;;;;480.27;287.25;;;;;;;6.77;41.85;100005.59;688332;28;46844;-66
2022/03/31 00:28:26;;;;;;;478.85;275.70;;;;;;;6.77;41.95;100009.13;685694;28;92363;-66
2022/03/31 00:28:48;;;;;;;478.65;277.23;;;;;;;6.76;41.98;100004.75;687018;28;46400;-67
2022/03/31 00:29:09;;;;;;;480.63;293.08;;;;;;;6.75;41.83;100002.25;688328;28;44375;-67
2022/03/31 00:29:30;;;;;;;483.77;307.65;;;;;;;6.76;41.68;100003.94;690346;28;23404;-66
2022/03/31 00:29:51;;;;;;;492.95;339.05;;;;;;;6.74;41.92;100004.09;690234;28;23666;-66
2022/03/31 00:30:14;;;;;;;492.40;344.70;;;;;;;6.74;41.92;100006.78;690745;28;23126;-66
2022/03/31 00:30:35;;;;;;;494.73;357.42;;;;;;;6.74;41.91;100003.25;688895;28;69625;-66
2022/03/31 00:30:56;;;;;;;496.63;366.33;;;;;;;6.74;41.94;99996.06;690125;28;43940;-66
2022/03/31 00:31:18;;;;;;;495.55;367.38;;;;;;;6.74;41.90;99993.38;690977;28;21261;-67
2022/03/31 00:31:41;;;;;;;498.10;373.20;;;;;;;6.73;41.86;100005.09;689409;28;44388;-66
2022/03/31 00:32:03;;;;;;;496.50;370.42;;;;;;;6.74;41.89;100000.56;689965;28;44486;-66
2022/03/31 00:32:24;;;;;;;498.00;378.73;;;;;;;6.75;42.03;99994.19;689854;28;46259;-66
2022/03/31 00:32:45;;;;;;;483.55;301.05;;;;;;;6.75;42.02;99996.88;690210;28;46353;-66
2022/03/31 00:33:08;;;;;;;476.83;263.30;;;;;;;6.72;41.80;99999.91;690564;28;21133;-67
2022/03/31 00:33:29;;;;;;;476.10;265.33;;;;;;;6.75;41.81;100000.38;689168;28;67462;-66
2022/03/31 00:33:50;;;;;;;473.92;258.63;;;;;;;6.76;41.89;100001.25;690715;28;22416;-66
2022/03/31 00:34:12;;;;;;;480.15;284.42;;;;;;;6.77;41.95;100002.91;690838;28;22401;-67
2022/03/31 00:34:35;;;;;;;475.73;264.67;;;;;;;6.77;41.85;99995.72;690767;28;22412;-66
2022/03/31 00:34:57;;;;;;;475.30;260.23;;;;;;;6.78;41.89;99996.53;688461;28;90726;-66
2022/03/31 00:35:19;;;;;;;476.33;266.80;;;;;;;6.79;41.75;99990.16;690100;28;46376;-65
2022/03/31 00:35:40;;;;;;;478.58;278.90;;;;;;;6.77;41.97;99984.97;690920;28;22369;-66
2022/03/31 00:36:02;;;;;;;477.90;278.05;;;;;;;6.78;41.71;99992.00;689919;28;46299;-66
2022/03/31 00:36:23;;;;;;;476.95;274.58;;;;;;;6.79;41.88;99991.00;690721;28;27554;-66
2022/03/31 00:36:44;;;;;;;475.55;268.50;;;;;;;6.78;41.76;99986.63;689855;28;22361;-66
2022/03/31 00:37:05;;;;;;;474.95;268.27;;;;;;;6.78;41.76;100000.03;691108;28;21526;-66
2022/03/31 00:37:27;;;;;;;476.58;277.65;;;;;;;6.77;41.74;99978.75;690998;28;23871;-66
2022/03/31 00:37:49;;;;;;;474.90;268.17;;;;;;;6.78;41.57;99985.81;690206;28;46280;-65
2022/03/31 00:38:11;;;;;;;476.02;273.55;;;;;;;6.74;41.72;99996.06;689759;28;45266;-65
2022/03/31 00:38:32;;;;;;;475.77;270.92;;;;;;;6.70;41.64;99992.03;690614;28;22388;-65
2022/03/31 00:39:33;;;;;;;477.50;274.38;;;;;;;6.66;41.88;99988.00;686297;28;138362;-65
2022/03/31 00:39:55;;;;;;;477.85;267.63;;;;;;;6.63;41.79;99991.00;690609;28;23422;-65
2022/03/31 00:40:20;;;;;;;476.37;272.20;;;;;;;6.61;42.03;99993.03;688701;28;69820;-65
2022/03/31 00:40:42;;;;;;;477.77;278.75;;;;;;;6.58;41.89;99998.75;686941;28;137945;-65
2022/03/31 00:41:04;;;;;;;476.27;270.05;;;;;;;6.55;42.00;99993.72;690979;28;23495;-65
2022/03/31 00:41:27;;;;;;;477.65;271.90;;;;;;;6.53;42.10;99993.06;688898;28;70531;-65
2022/03/31 00:41:48;;;;;;;475.13;260.08;;;;;;;6.52;42.15;99991.38;689049;28;45237;-65
2022/03/31 00:42:10;;;;;;;475.88;264.55;;;;;;;6.47;42.37;99989.19;690492;28;23460;-66
2022/03/31 00:42:31;;;;;;;477.80;270.88;;;;;;;6.45;42.28;99989.34;689219;28;47535;-65
2022/03/31 00:42:55;;;;;;;476.67;270.60;;;;;;;6.46;42.29;99988.34;689802;28;46112;-65
2022/03/31 00:43:16;;;;;;;476.85;267.42;;;;;;;6.45;42.39;99989.34;687802;28;92251;-65
2022/03/31 00:43:38;;;;;;;480.85;279.40;;;;;;;6.46;42.39;99982.16;690678;28;22205;-66
2022/03/31 00:43:59;;;;;;;475.98;270.05;;;;;;;6.47;42.37;99989.19;689867;28;46247;-65
2022/03/31 00:44:20;;;;;;;478.05;275.73;;;;;;;6.48;42.41;99997.06;690834;28;23183;-65
2022/03/31 00:44:42;;;;;;;477.80;275.75;;;;;;;6.48;42.41;99989.03;690669;28;23454;-65
2022/03/31 00:45:04;;;;;;;477.58;273.25;;;;;;;6.49;42.26;99987.19;689886;28;45208;-66
2022/03/31 00:45:27;;;;;;;476.10;268.48;;;;;;;6.49;42.35;99990.72;689875;28;44418;-65
2022/03/31 00:45:51;;;;;;;475.95;263.50;;;;;;;6.46;42.30;99974.94;689181;28;69374;-66
2022/03/31 00:46:20;;;;;;;478.80;278.52;;;;;;;6.47;42.43;99986.50;693731;28;91625;-65
2022/03/31 00:46:49;;;;;;;479.00;281.20;;;;;;;6.48;42.29;99980.16;691107;28;137701;-65
2022/03/31 00:47:10;;;;;;;479.90;282.70;;;;;;;6.46;42.25;99984.84;691653;28;138006;-66
2022/03/31 00:47:35;;;;;;;480.00;285.80;;;;;;;6.47;42.17;99990.03;695427;28;22458;-66
2022/03/31 00:47:56;;;;;;;477.27;269.77;;;;;;;6.48;42.36;99985.50;692484;28;113651;-66
2022/03/31 00:48:19;;;;;;;474.85;261.98;;;;;;;6.48;42.25;99989.03;690658;28;22548;-65
2022/03/31 00:48:41;;;;;;;476.48;269.23;;;;;;;6.48;42.19;99988.19;690031;28;46335;-66
2022/03/31 00:49:02;;;;;;;477.42;272.30;;;;;;;6.48;42.18;99983.66;690069;28;44454;-65
2022/03/31 00:49:24;;;;;;;474.48;263.02;;;;;;;6.46;42.13;99980.31;689810;28;47693;-65
2022/03/31 00:49:45;;;;;;;480.90;276.83;;;;;;;6.48;42.07;99982.81;689319;28;47564;-65
2022/03/31 00:50:08;;;;;;;479.70;282.50;;;;;;;6.47;42.06;99983.81;691723;28;909;-65
2022/03/31 00:50:31;;;;;;;472.17;251.30;;;;;;;6.50;42.05;99988.84;688668;28;69602;-65
2022/03/31 00:50:52;;;;;;;475.38;262.67;;;;;;;6.50;42.14;99980.81;689532;28;44372;-66
2022/03/31 00:51:13;;;;;;;478.48;280.17;;;;;;;6.49;41.93;99979.16;689670;28;46301;-65
2022/03/31 00:51:34;;;;;;;478.25;277.63;;;;;;;6.52;41.91;99988.69;689941;28;21511;-66
2022/03/31 00:51:56;;;;;;;489.50;329.45;;;;;;;6.51;42.02;99981.66;690432;28;22461;-66
2022/03/31 00:52:17;;;;;;;479.92;287.52;;;;;;;6.53;41.81;99977.78;689700;28;44371;-65
2022/03/31 00:52:39;;;;;;;476.50;272.52;;;;;;;6.55;41.94;99991.88;690857;28;22381;-65
2022/03/31 00:53:01;;;;;;;480.27;286.08;;;;;;;6.55;42.00;99981.16;689469;28;45211;-65
2022/03/31 00:53:22;;;;;;;486.10;313.35;;;;;;;6.56;41.82;99987.34;689571;28;47470;-66
2022/03/31 00:53:43;;;;;;;477.52;271.60;;;;;;;6.53;41.71;99976.97;690976;28;22351;-65
2022/03/31 00:54:04;;;;;;;480.50;281.30;;;;;;;6.54;41.67;99981.31;690472;28;22405;-65
2022/03/31 00:54:27;;;;;;;474.27;260.25;;;;;;;6.52;41.74;99976.13;690315;28;21156;-66
2022/03/31 00:54:48;;;;;;;478.02;275.90;;;;;;;6.51;41.81;99984.34;689006;28;67496;-65
2022/03/31 00:55:10;;;;;;;481.92;289.33;;;;;;;6.51;41.78;99982.50;690871;28;22384;-65
2022/03/31 00:55:34;;;;;;;476.85;267.27;;;;;;;6.50;41.78;99983.47;689557;28;45174;-65
2022/03/31 00:55:55;;;;;;;480.52;279.33;;;;;;;6.48;41.78;99975.59;688597;28;92208;-65
2022/03/31 00:56:16;;;;;;;476.73;266.70;;;;;;;6.49;41.83;99979.97;690319;28;24525;-65
2022/03/31 00:56:38;;;;;;;485.85;311.63;;;;;;;6.51;41.81;99982.50;689871;28;22413;-65
2022/03/31 00:57:02;;;;;;;476.95;266.42;;;;;;;6.52;41.80;99981.50;690268;28;44702;-66
2022/03/31 00:57:23;;;;;;;478.15;274.30;;;;;;;6.52;41.76;99978.81;688625;28;92255;-65
2022/03/31 00:57:45;;;;;;;477.13;272.10;;;;;;;6.52;41.71;99988.69;691427;28;21533;-66
2022/03/31 00:58:06;;;;;;;477.58;281.35;;;;;;;6.50;41.71;99983.47;690690;28;45213;-66
2022/03/31 00:58:29;;;;;;;481.77;301.67;;;;;;;6.47;41.58;99984.69;691166;28;22613;-65
2022/03/31 00:58:50;;;;;;;472.23;254.43;;;;;;;6.46;41.71;99983.00;689260;28;70129;-65
2022/03/31 00:59:12;;;;;;;471.40;253.25;;;;;;;6.45;41.85;99980.47;690789;28;22217;-66
2022/03/31 00:59:33;;;;;;;477.13;263.75;;;;;;;6.45;41.88;99984.00;689949;28;46187;-65
2022/03/31 00:59:54;;;;;;;473.23;247.80;;;;;;;6.46;41.88;99983.00;690948;28;21458;-65
2022/03/31 01:00:17;;;;;;;471.77;249.10;;;;;;;6.44;41.90;99990.38;691085;28;21450;-65
2022/03/31 01:00:38;;;;;;;473.60;254.75;;;;;;;6.43;42.12;99986.00;690897;28;44250;-66
2022/03/31 01:00:59;;;;;;;474.23;255.23;;;;;;;6.41;41.99;99984.50;693508;28;22379;-65
2022/03/31 01:01:21;;;;;;;474.70;259.08;;;;;;;6.41;42.10;99984.50;692746;28;45236;-65
2022/03/31 01:01:43;;;;;;;474.40;256.35;;;;;;;6.38;42.00;99993.72;694251;28;23414;-66
2022/03/31 01:02:06;;;;;;;474.20;257.80;;;;;;;6.37;42.03;99983.19;694755;28;69435;-65
2022/03/31 01:02:30;;;;;;;473.83;257.98;;;;;;;6.37;42.14;99988.53;694352;28;54652;-66
2022/03/31 01:02:51;;;;;;;473.73;258.13;;;;;;;6.36;41.93;99995.72;691244;28;91837;-65
2022/03/31 01:03:12;;;;;;;475.58;262.25;;;;;;;6.37;42.04;99988.53;694048;28;23468;-66
2022/03/31 01:03:37;;;;;;;473.92;256.90;;;;;;;6.35;41.94;99987.84;694048;28;14837;-65
2022/03/31 01:03:59;;;;;;;475.05;263.67;;;;;;;6.36;41.97;99993.03;693307;28;46200;-65
2022/03/31 01:04:20;;;;;;;476.65;268.42;;;;;;;6.37;41.95;99986.69;692947;28;44542;-65
2022/03/31 01:04:42;;;;;;;476.73;267.27;;;;;;;6.39;41.87;99992.72;693829;28;23385;-65
2022/03/31 01:05:05;;;;;;;474.08;255.00;;;;;;;6.38;41.96;99996.41;693417;28;44332;-65
2022/03/31 01:05:26;;;;;;;474.63;255.40;;;;;;;6.39;41.91;99992.72;692739;28;45274;-65
2022/03/31 01:05:47;;;;;;;475.60;262.27;;;;;;;6.39;41.95;99994.56;694446;28;1608;-65
2022/03/31 01:06:08;;;;;;;475.50;265.65;;;;;;;6.40;41.94;99993.56;693637;28;21493;-66
2022/03/31 01:06:29;;;;;;;474.55;258.98;;;;;;;6.40;41.96;99991.72;693637;28;23388;-66
2022/03/31 01:06:52;;;;;;;473.83;254.35;;;;;;;6.40;42.10;99990.88;690077;28;21576;-65
2022/03/31 01:07:13;;;;;;;476.02;265.20;;;;;;;6.39;42.13;99986.53;689120;28;69505;-65
2022/03/31 01:07:35;;;;;;;476.55;263.80;;;;;;;6.37;42.17;99984.00;690898;28;21500;-65
2022/03/31 01:07:56;;;;;;;477.30;270.53;;;;;;;6.38;42.05;99993.72;690533;28;21545;-65
2022/03/31 01:08:18;;;;;;;475.25;259.40;;;;;;;6.38;42.03;99988.38;690184;28;45282;-65
2022/03/31 01:08:39;;;;;;;476.17;267.58;;;;;;;6.38;42.27;99991.06;690637;28;45312;-65
2022/03/31 01:09:00;;;;;;;477.48;272.58;;;;;;;6.38;41.93;99987.50;690980;28;23406;-65
2022/03/31 01:09:23;;;;;;;477.98;276.63;;;;;;;6.35;41.96;99985.16;691566;28;6887;-65
2022/03/31 01:09:44;;;;;;;480.85;275.60;;;;;;;6.36;42.02;99987.69;689312;28;46453;-65
2022/03/31 01:10:06;;;;;;;477.40;270.48;;;;;;;6.36;42.07;99984.16;691018;28;23526;-65
2022/03/31 01:10:27;;;;;;;475.67;267.27;;;;;;;6.37;42.25;99989.38;690137;28;44036;-65
2022/03/31 01:10:53;;;;;;;475.65;270.38;;;;;;;6.37;42.04;99991.22;691204;28;23479;-65
2022/03/31 01:11:14;;;;;;;476.25;269.17;;;;;;;6.37;42.15;99991.22;687115;28;138079;-66
2022/03/31 01:11:35;;;;;;;473.15;253.15;;;;;;;6.35;42.03;99991.38;690104;28;23724;-65
2022/03/31 01:11:56;;;;;;;474.35;258.98;;;;;;;6.32;42.00;99987.19;691329;28;22340;-65
2022/03/31 01:12:18;;;;;;;474.30;254.38;;;;;;;6.37;42.00;99989.38;690909;28;20960;-65
2022/03/31 01:12:40;;;;;;;476.05;266.17;;;;;;;6.38;41.88;99987.50;690440;28;46324;-66
2022/03/31 01:13:04;;;;;;;476.40;270.58;;;;;;;6.33;41.84;99982.66;690524;28;47344;-65
2022/03/31 01:13:25;;;;;;;474.88;256.17;;;;;;;6.29;41.92;99981.31;688316;28;93049;-65
2022/03/31 01:13:47;;;;;;;474.90;258.85;;;;;;;6.28;42.12;99987.69;691099;28;23434;-65
2022/03/31 01:14:08;;;;;;;473.58;257.90;;;;;;;6.23;42.17;99990.88;689962;28;46517;-65
2022/03/31 01:14:30;;;;;;;475.42;260.25;;;;;;;6.22;42.20;99983.84;690064;28;46219;-66
2022/03/31 01:15:06;;;;;;;474.35;257.63;;;;;;;6.21;42.17;99984.84;691360;28;23433;-66
2022/03/31 01:15:28;;;;;;;473.65;255.90;;;;;;;6.17;42.32;99988.84;686974;28;138042;-65
2022/03/31 01:15:50;;;;;;;475.60;260.45;;;;;;;6.16;42.30;99987.19;690600;28;47587;-65
2022/03/31 01:16:11;;;;;;;478.00;275.42;;;;;;;6.16;42.27;99986.34;690095;28;47325;-65
2022/03/31 01:16:32;;;;;;;474.65;257.60;;;;;;;6.14;42.39;99994.56;690473;28;22442;-65
2022/03/31 01:16:53;;;;;;;470.90;245.43;;;;;;;6.13;42.24;99991.03;691076;28;22460;-65
2022/03/31 01:17:15;;;;;;;473.33;257.10;;;;;;;6.13;42.28;99993.72;690968;28;21481;-65
2022/03/31 01:17:38;;;;;;;476.95;270.27;;;;;;;6.15;42.20;99993.56;690149;28;46339;-65
2022/03/31 01:17:59;;;;;;;476.25;269.63;;;;;;;6.17;42.30;99986.19;689360;28;69429;-66
2022/03/31 01:18:20;;;;;;;474.27;263.65;;;;;;;6.16;42.34;99992.56;691214;28;22197;-65
2022/03/31 01:18:42;;;;;;;473.42;255.85;;;;;;;6.17;42.17;99985.34;690803;28;23770;-65
2022/03/31 01:19:04;;;;;;;476.95;272.63;;;;;;;6.19;42.13;99991.38;690350;28;45129;-66
2022/03/31 01:19:25;;;;;;;475.38;269.88;;;;;;;6.21;42.13;99992.88;691834;28;1601;-65
2022/03/31 01:19:46;;;;;;;478.88;273.25;;;;;;;6.20;42.07;99988.53;689746;28;46142;-65
2022/03/31 01:20:11;;;;;;;476.13;261.67;;;;;;;6.20;42.16;99988.53;691348;28;22066;-65
2022/03/31 01:20:33;;;;;;;474.67;257.50;;;;;;;6.20;42.16;99985.84;688482;28;91985;-65
2022/03/31 01:20:54;;;;;;;474.45;259.00;;;;;;;6.23;42.19;99992.72;690238;28;44356;-65
2022/03/31 01:21:15;;;;;;;474.35;253.95;;;;;;;6.22;42.16;99991.91;691406;28;24251;-66
2022/03/31 01:21:37;;;;;;;479.02;270.92;;;;;;;6.22;42.29;99991.91;690416;28;22364;-65
2022/03/31 01:21:59;;;;;;;478.30;272.42;;;;;;;6.21;42.02;99984.03;689545;28;69187;-65
2022/03/31 01:22:23;;;;;;;474.83;261.95;;;;;;;6.22;42.01;99991.91;690447;28;47391;-65
2022/03/31 01:22:44;;;;;;;473.50;255.82;;;;;;;6.21;42.28;99994.75;689322;28;69486;-65
2022/03/31 01:23:10;;;;;;;470.95;240.55;;;;;;;6.19;42.39;99988.69;691576;28;22155;-65
2022/03/31 01:23:32;;;;;;;473.27;252.48;;;;;;;6.16;42.43;99986.34;687530;28;137105;-65
2022/03/31 01:23:54;;;;;;;474.15;253.15;;;;;;;6.16;42.25;99986.34;690268;28;45144;-65
2022/03/31 01:24:17;;;;;;;472.02;247.88;;;;;;;6.18;42.22;99990.53;690068;28;45263;-65
2022/03/31 01:24:38;;;;;;;473.65;251.52;;;;;;;6.16;42.28;99992.56;689168;28;68961;-65
2022/03/31 01:25:01;;;;;;;471.58;247.00;;;;;;;6.16;42.29;99992.56;690948;28;23441;-65
2022/03/31 01:25:22;;;;;;;473.60;256.87;;;;;;;6.17;42.09;99991.53;688896;28;92111;-66
2022/03/31 01:25:44;;;;;;;472.55;253.60;;;;;;;6.17;42.10;99988.84;690360;28;46371;-65
2022/03/31 01:26:05;;;;;;;475.13;261.10;;;;;;;6.17;42.01;99988.84;690738;28;21325;-65
2022/03/31 01:26:27;;;;;;;475.05;261.83;;;;;;;6.19;42.08;99994.06;689710;28;46271;-65
2022/03/31 01:26:48;;;;;;;473.92;254.15;;;;;;;6.19;42.16;99992.22;691930;28;46273;-65
2022/03/31 01:27:11;;;;;;;473.92;253.73;;;;;;;6.18;42.14;99995.91;693937;28;22361;-65
2022/03/31 01:27:34;;;;;;;473.10;252.65;;;;;;;6.15;42.25;99992.72;692748;28;67378;-65
2022/03/31 01:27:56;;;;;;;473.42;254.38;;;;;;;6.12;42.16;99984.00;693067;28;44268;-65
2022/03/31 01:28:17;;;;;;;473.58;251.60;;;;;;;6.13;42.38;99995.56;692217;28;45163;-65
2022/03/31 01:28:39;;;;;;;474.40;252.10;;;;;;;6.11;42.34;99985.03;693524;28;22389;-65
2022/03/31 01:29:01;;;;;;;474.45;255.48;;;;;;;6.11;42.23;99994.88;692318;28;70188;-65
2022/03/31 01:29:26;;;;;;;473.05;253.70;;;;;;;6.10;42.31;99986.00;694167;28;21275;-65
2022/03/31 01:29:47;;;;;;;475.20;254.27;;;;;;;6.12;42.21;99989.34;689284;28;136447;-65
2022/03/31 01:30:10;;;;;;;472.73;248.00;;;;;;;6.10;42.34;99980.66;693706;28;22405;-65
2022/03/31 01:30:32;;;;;;;474.00;252.68;;;;;;;6.11;42.34;99986.84;692582;28;66756;-65
2022/03/31 01:30:54;;;;;;;474.20;253.98;;;;;;;6.09;42.22;99992.38;694030;28;22426;-65
2022/03/31 01:31:15;;;;;;;472.33;249.75;;;;;;;6.05;42.31;99991.03;692528;28;44586;-65
2022/03/31 01:31:38;;;;;;;472.48;249.25;;;;;;;6.05;42.36;99984.81;691547;28;45305;-65
2022/03/31 01:31:59;;;;;;;474.50;258.33;;;;;;;6.03;42.51;99987.66;690718;28;46192;-65
2022/03/31 01:32:21;;;;;;;477.83;274.23;;;;;;;6.02;42.36;99999.41;691426;28;23435;-65
2022/03/31 01:32:44;;;;;;;475.60;265.50;;;;;;;6.04;42.61;99992.03;689445;28;67299;-65
2022/03/31 01:33:05;;;;;;;473.30;252.93;;;;;;;6.05;42.54;99984.81;690323;28;45314;-65
2022/03/31 01:33:26;;;;;;;475.92;266.05;;;;;;;6.02;42.41;99986.00;691389;28;19453;-65
2022/03/31 01:33:49;;;;;;;472.33;249.52;;;;;;;6.00;42.51;99993.34;691188;28;22253;-65
2022/03/31 01:34:10;;;;;;;472.25;248.80;;;;;;;6.02;42.61;99991.38;689002;28;90213;-65
2022/03/31 01:34:31;;;;;;;473.00;249.27;;;;;;;6.03;42.55;99987.66;690973;28;24415;-65
2022/03/31 01:34:52;;;;;;;475.50;259.15;;;;;;;6.02;42.56;99990.50;690485;28;23508;-65
2022/03/31 01:35:15;;;;;;;474.23;254.52;;;;;;;6.01;42.53;99992.38;691419;28;23417;-65
2022/03/31 01:35:36;;;;;;;474.05;256.33;;;;;;;6.02;42.54;99987.84;690240;28;46165;-65
2022/03/31 01:35:57;;;;;;;475.17;263.45;;;;;;;6.00;42.51;99989.84;690955;28;21599;-65
2022/03/31 01:36:19;;;;;;;476.20;265.65;;;;;;;5.97;42.65;99984.81;691278;28;21538;-65
2022/03/31 01:36:42;;;;;;;473.10;249.52;;;;;;;5.97;42.58;99990.19;689535;28;46265;-65
2022/03/31 01:37:04;;;;;;;473.40;253.45;;;;;;;5.98;42.50;99989.19;688648;28;93021;-65
2022/03/31 01:37:25;;;;;;;471.77;246.07;;;;;;;5.97;42.50;99991.00;691273;28;21519;-65
2022/03/31 01:37:47;;;;;;;471.70;248.65;;;;;;;5.98;42.47;99989.19;691178;28;22372;-65
2022/03/31 01:38:09;;;;;;;473.27;255.23;;;;;;;5.97;42.44;99988.31;690510;28;46317;-65
2022/03/31 01:38:30;;;;;;;473.53;258.63;;;;;;;5.95;42.62;99988.47;690033;28;70177;-65
2022/03/31 01:38:53;;;;;;;473.02;259.27;;;;;;;5.99;42.51;99988.16;690288;28;46340;-65
2022/03/31 01:39:14;;;;;;;471.42;248.98;;;;;;;5.99;42.64;99989.03;690631;28;46306;-65
2022/03/31 01:39:35;;;;;;;473.48;252.40;;;;;;;6.00;42.59;99995.22;690799;28;23409;-65
2022/03/31 01:39:56;;;;;;;474.75;254.63;;;;;;;6.01;42.45;99988.84;691266;28;21671;-65
2022/03/31 01:40:18;;;;;;;472.52;254.40;;;;;;;6.00;42.27;99993.34;691005;28;21542;-65
2022/03/31 01:40:39;;;;;;;471.58;248.32;;;;;;;6.03;42.38;99987.66;689968;28;45211;-65
2022/03/31 01:41:00;;;;;;;475.58;261.08;;;;;;;6.05;42.19;99988.34;690900;28;22346;-66
2022/03/31 01:41:21;;;;;;;471.50;248.70;;;;;;;6.05;42.25;99995.53;690135;28;46345;-65
2022/03/31 01:41:44;;;;;;;471.98;248.95;;;;;;;6.06;42.33;99997.22;691618;28;23656;-65